UAL388 KEWR-EGLL
Flight info
| Callsign | UAL388 |
|---|---|
| Flight time | N/A |
| Altitude | 35000 |
| Route | DCT MERIT DCT HFD DCT PUT DCT TUSKY DCT YHZ Q846 NOTOP DCT JOOPY/M084F360 NATV BEXET/N0481F370 DCT DEVOL DCT RINUS DCT LIFFY UL975 MALUD Q38 NUGRA NUGRA1H |
| Aircraft | B77W/H-SDE1E2E3FGHIJ2J3J4J5M1RWXY/LB1D1 |
Departure
| Time | N/A |
|---|---|
| Airport | Newark Liberty International Airport (KEWR) |
Arrival
| Time | 2026-05-04 04:43 |
|---|---|
| Airport | London Heathrow Airport (EGLL) |
| Time | Latitude | Longitude | Altitude | Speed | Heading |
|---|---|---|---|---|---|
| 2026-05-03 22:46 | 42.58960 | -70.03643 | 34799 ft | 528 kts | 64° |
| 2026-05-03 22:46 | 42.60499 | -69.99109 | 34795 ft | 528 kts | 64° |
| 2026-05-03 22:47 | 42.63569 | -69.90044 | 34802 ft | 528 kts | 65° |
| 2026-05-03 22:47 | 42.66630 | -69.80973 | 34784 ft | 528 kts | 65° |
| 2026-05-03 22:48 | 42.69662 | -69.71960 | 34792 ft | 527 kts | 65° |
| 2026-05-03 22:48 | 42.72702 | -69.62893 | 34784 ft | 527 kts | 65° |
| 2026-05-03 22:49 | 42.75742 | -69.53795 | 34799 ft | 527 kts | 65° |
| 2026-05-03 22:49 | 42.78772 | -69.44696 | 34773 ft | 527 kts | 65° |
| 2026-05-03 22:50 | 42.81789 | -69.35607 | 34777 ft | 527 kts | 65° |
| 2026-05-03 22:50 | 42.84801 | -69.26500 | 34775 ft | 527 kts | 65° |
| 2026-05-03 22:51 | 42.87789 | -69.17439 | 34754 ft | 527 kts | 66° |
| 2026-05-03 22:51 | 42.90795 | -69.08289 | 34757 ft | 528 kts | 66° |
| 2026-05-03 22:52 | 42.93801 | -68.99108 | 34757 ft | 530 kts | 66° |
| 2026-05-03 22:52 | 42.96806 | -68.89900 | 34757 ft | 531 kts | 66° |
| 2026-05-03 22:53 | 42.99811 | -68.80661 | 34767 ft | 532 kts | 66° |
| 2026-05-03 22:53 | 43.02809 | -68.71409 | 34746 ft | 533 kts | 66° |
| 2026-05-03 22:54 | 43.05784 | -68.62199 | 34742 ft | 533 kts | 66° |
| 2026-05-03 22:54 | 43.08770 | -68.52923 | 34738 ft | 532 kts | 66° |
| 2026-05-03 22:55 | 43.11743 | -68.43652 | 34734 ft | 531 kts | 66° |
| 2026-05-03 22:55 | 43.14208 | -68.35943 | 34710 ft | 531 kts | 66° |
| 2026-05-03 22:56 | 43.17637 | -68.25178 | 34712 ft | 529 kts | 66° |
| 2026-05-03 22:56 | 43.20573 | -68.15927 | 34709 ft | 529 kts | 66° |
| 2026-05-03 22:57 | 43.23027 | -68.08170 | 34707 ft | 529 kts | 66° |
| 2026-05-03 22:57 | 43.25950 | -67.98903 | 34705 ft | 529 kts | 67° |
| 2026-05-03 22:58 | 43.28848 | -67.89681 | 34694 ft | 529 kts | 67° |
| 2026-05-03 22:58 | 43.31752 | -67.80408 | 34674 ft | 529 kts | 67° |
| 2026-05-03 22:59 | 43.34651 | -67.71116 | 34685 ft | 529 kts | 67° |
| 2026-05-03 22:59 | 43.37543 | -67.61814 | 34678 ft | 530 kts | 67° |
| 2026-05-03 23:00 | 43.40432 | -67.52490 | 34713 ft | 530 kts | 67° |
| 2026-05-03 23:00 | 43.43315 | -67.43152 | 34672 ft | 529 kts | 68° |
| 2026-05-03 23:01 | 43.46168 | -67.33874 | 34679 ft | 529 kts | 68° |
| 2026-05-03 23:01 | 43.49036 | -67.24517 | 34668 ft | 529 kts | 68° |
| 2026-05-03 23:02 | 43.51891 | -67.15166 | 34655 ft | 529 kts | 68° |
| 2026-05-03 23:02 | 43.54737 | -67.05818 | 34654 ft | 528 kts | 68° |
| 2026-05-03 23:03 | 43.57761 | -66.96595 | 34639 ft | 528 kts | 62° |
| 2026-05-03 23:03 | 43.61323 | -66.87741 | 34628 ft | 528 kts | 61° |
| 2026-05-03 23:04 | 43.64900 | -66.78973 | 34627 ft | 527 kts | 61° |
| 2026-05-03 23:04 | 43.68484 | -66.70065 | 34594 ft | 527 kts | 62° |
| 2026-05-03 23:05 | 43.71995 | -66.61234 | 34601 ft | 528 kts | 62° |
| 2026-05-03 23:05 | 43.75530 | -66.52296 | 34559 ft | 528 kts | 62° |
| 2026-05-03 23:06 | 43.79054 | -66.43363 | 34537 ft | 529 kts | 62° |
| 2026-05-03 23:06 | 43.82577 | -66.34412 | 34521 ft | 529 kts | 62° |
| 2026-05-03 23:07 | 43.86069 | -66.25512 | 34516 ft | 529 kts | 62° |
| 2026-05-03 23:07 | 43.89576 | -66.16546 | 34505 ft | 529 kts | 62° |
| 2026-05-03 23:08 | 43.93084 | -66.07549 | 34510 ft | 529 kts | 63° |
| 2026-05-03 23:08 | 43.96580 | -65.98554 | 34503 ft | 530 kts | 63° |
| 2026-05-03 23:09 | 44.00071 | -65.89541 | 34503 ft | 529 kts | 63° |
| 2026-05-03 23:09 | 44.03551 | -65.80530 | 34491 ft | 528 kts | 63° |
| 2026-05-03 23:10 | 44.06999 | -65.71573 | 34452 ft | 528 kts | 63° |
| 2026-05-03 23:10 | 44.10457 | -65.62561 | 34448 ft | 527 kts | 63° |
| 2026-05-03 23:11 | 44.13903 | -65.53548 | 34390 ft | 527 kts | 63° |
| 2026-05-03 23:11 | 44.17322 | -65.44579 | 34418 ft | 527 kts | 63° |
| 2026-05-03 23:12 | 44.20762 | -65.35527 | 34427 ft | 529 kts | 63° |
| 2026-05-03 23:12 | 44.24207 | -65.26433 | 34387 ft | 530 kts | 63° |
| 2026-05-03 23:13 | 44.27649 | -65.17313 | 34386 ft | 531 kts | 64° |
| 2026-05-03 23:13 | 44.31085 | -65.08182 | 34380 ft | 531 kts | 64° |
| 2026-05-03 23:14 | 44.34499 | -64.99080 | 34332 ft | 531 kts | 64° |
| 2026-05-03 23:14 | 44.37923 | -64.89921 | 34317 ft | 530 kts | 64° |
| 2026-05-03 23:15 | 44.41329 | -64.80780 | 34328 ft | 530 kts | 64° |
| 2026-05-03 23:15 | 44.44706 | -64.71685 | 34300 ft | 529 kts | 64° |
| 2026-05-03 23:16 | 44.48099 | -64.62520 | 34297 ft | 530 kts | 64° |
| 2026-05-03 23:16 | 44.51481 | -64.53353 | 34286 ft | 529 kts | 64° |
| 2026-05-03 23:17 | 44.54851 | -64.44187 | 34263 ft | 529 kts | 65° |
| 2026-05-03 23:17 | 44.58215 | -64.35005 | 34258 ft | 529 kts | 65° |
| 2026-05-03 23:18 | 44.61574 | -64.25809 | 34208 ft | 529 kts | 65° |
| 2026-05-03 23:18 | 44.64904 | -64.16661 | 34232 ft | 530 kts | 65° |
| 2026-05-03 23:19 | 44.68254 | -64.07424 | 34248 ft | 531 kts | 65° |
| 2026-05-03 23:19 | 44.71604 | -63.98157 | 34212 ft | 532 kts | 65° |
| 2026-05-03 23:20 | 44.74952 | -63.88869 | 34223 ft | 532 kts | 66° |
| 2026-05-03 23:20 | 44.78284 | -63.79590 | 34203 ft | 531 kts | 66° |
| 2026-05-03 23:21 | 44.81605 | -63.70309 | 34145 ft | 529 kts | 66° |
| 2026-05-03 23:21 | 44.84907 | -63.61051 | 34106 ft | 528 kts | 66° |
| 2026-05-03 23:22 | 44.89812 | -63.47237 | 34124 ft | 526 kts | 66° |
| 2026-05-03 23:22 | 44.93077 | -63.37989 | 34133 ft | 525 kts | 67° |
| 2026-05-03 23:23 | 44.96219 | -63.28738 | 34148 ft | 525 kts | 68° |
| 2026-05-03 23:23 | 44.99348 | -63.19400 | 34162 ft | 525 kts | 68° |
| 2026-05-03 23:24 | 45.02489 | -63.10050 | 34166 ft | 525 kts | 68° |
| 2026-05-03 23:24 | 45.05601 | -63.00783 | 34182 ft | 524 kts | 68° |
| 2026-05-03 23:25 | 45.08851 | -62.91540 | 34173 ft | 526 kts | 64° |
| 2026-05-03 23:25 | 45.12529 | -62.82557 | 34169 ft | 528 kts | 63° |
| 2026-05-03 23:26 | 45.16250 | -62.73567 | 34192 ft | 528 kts | 64° |
| 2026-05-03 23:26 | 45.19938 | -62.64537 | 34199 ft | 529 kts | 64° |
| 2026-05-03 23:27 | 45.23598 | -62.55484 | 34194 ft | 529 kts | 64° |
| 2026-05-03 23:27 | 45.27229 | -62.46471 | 34217 ft | 528 kts | 64° |
| 2026-05-03 23:28 | 45.30876 | -62.37392 | 34222 ft | 528 kts | 65° |
| 2026-05-03 23:28 | 45.34511 | -62.28317 | 34236 ft | 527 kts | 65° |
| 2026-05-03 23:29 | 45.38133 | -62.19243 | 34203 ft | 527 kts | 65° |
| 2026-05-03 23:29 | 45.41720 | -62.10228 | 34244 ft | 527 kts | 65° |
| 2026-05-03 23:30 | 45.45337 | -62.01114 | 34259 ft | 528 kts | 65° |
| 2026-05-03 23:30 | 45.48817 | -61.91881 | 34241 ft | 528 kts | 68° |
| 2026-05-03 23:31 | 45.52173 | -61.82572 | 34259 ft | 528 kts | 68° |
| 2026-05-03 23:31 | 45.55508 | -61.73305 | 34258 ft | 528 kts | 68° |
| 2026-05-03 23:32 | 45.58883 | -61.63978 | 34247 ft | 528 kts | 68° |
| 2026-05-03 23:32 | 45.62261 | -61.54650 | 34227 ft | 527 kts | 68° |
| 2026-05-03 23:33 | 45.65623 | -61.45338 | 34181 ft | 526 kts | 69° |
| 2026-05-03 23:33 | 45.68950 | -61.36080 | 34214 ft | 527 kts | 69° |
| 2026-05-03 23:34 | 45.72296 | -61.26732 | 34263 ft | 528 kts | 69° |
| 2026-05-03 23:34 | 45.75644 | -61.17348 | 34249 ft | 529 kts | 69° |
| 2026-05-03 23:35 | 45.78993 | -61.07931 | 34273 ft | 530 kts | 69° |
| 2026-05-03 23:35 | 45.82340 | -60.98489 | 34299 ft | 530 kts | 69° |
| 2026-05-03 23:36 | 45.85650 | -60.89118 | 34333 ft | 530 kts | 69° |
| 2026-05-03 23:36 | 45.88973 | -60.79675 | 34315 ft | 529 kts | 70° |
| 2026-05-03 23:37 | 45.92285 | -60.70230 | 34344 ft | 528 kts | 70° |
| 2026-05-03 23:37 | 45.95579 | -60.60804 | 34354 ft | 527 kts | 70° |
| 2026-05-03 23:38 | 45.98863 | -60.51370 | 34361 ft | 527 kts | 70° |
| 2026-05-03 23:38 | 46.02109 | -60.42013 | 34364 ft | 525 kts | 70° |
| 2026-05-03 23:39 | 46.05368 | -60.32588 | 34363 ft | 525 kts | 70° |
| 2026-05-03 23:39 | 46.08614 | -60.23165 | 34363 ft | 524 kts | 70° |
| 2026-05-03 23:40 | 46.11824 | -60.13811 | 34355 ft | 524 kts | 70° |
| 2026-05-03 23:40 | 46.15047 | -60.04388 | 34349 ft | 523 kts | 71° |
| 2026-05-03 23:41 | 46.18256 | -59.94972 | 34400 ft | 523 kts | 71° |
| 2026-05-03 23:41 | 46.21466 | -59.85517 | 34432 ft | 525 kts | 71° |
| 2026-05-03 23:42 | 46.24685 | -59.76000 | 34430 ft | 528 kts | 71° |
| 2026-05-03 23:42 | 46.27910 | -59.66433 | 34440 ft | 530 kts | 71° |
| 2026-05-03 23:43 | 46.31112 | -59.56901 | 34451 ft | 531 kts | 71° |
| 2026-05-03 23:43 | 46.34336 | -59.47270 | 34453 ft | 532 kts | 71° |
| 2026-05-03 23:44 | 46.37553 | -59.37627 | 34467 ft | 531 kts | 71° |
| 2026-05-03 23:44 | 46.40219 | -59.29608 | 34458 ft | 530 kts | 71° |
| 2026-05-03 23:45 | 46.43406 | -59.19988 | 34423 ft | 529 kts | 71° |
| 2026-05-03 23:45 | 46.46567 | -59.10409 | 34497 ft | 529 kts | 71° |
| 2026-05-03 23:46 | 46.49739 | -59.00755 | 34497 ft | 530 kts | 72° |
| 2026-05-03 23:46 | 46.52911 | -58.91066 | 34494 ft | 531 kts | 71° |
| 2026-05-03 23:47 | 46.56082 | -58.81350 | 34520 ft | 532 kts | 71° |
| 2026-05-03 23:47 | 46.59247 | -58.71615 | 34522 ft | 532 kts | 72° |
| 2026-05-03 23:48 | 46.62405 | -58.61864 | 34534 ft | 533 kts | 72° |
| 2026-05-03 23:48 | 46.65534 | -58.52168 | 34542 ft | 532 kts | 72° |
| 2026-05-03 23:49 | 46.68682 | -58.42374 | 34510 ft | 531 kts | 72° |
| 2026-05-03 23:49 | 46.71806 | -58.32620 | 34545 ft | 531 kts | 72° |
| 2026-05-03 23:50 | 46.74905 | -58.22899 | 34541 ft | 532 kts | 72° |
| 2026-05-03 23:50 | 46.78022 | -58.13089 | 34559 ft | 532 kts | 72° |
| 2026-05-03 23:51 | 46.81128 | -58.03278 | 34574 ft | 532 kts | 72° |
| 2026-05-03 23:51 | 46.84226 | -57.93453 | 34588 ft | 533 kts | 72° |
| 2026-05-03 23:52 | 46.87319 | -57.83606 | 34564 ft | 532 kts | 72° |
| 2026-05-03 23:52 | 46.90393 | -57.73785 | 34591 ft | 530 kts | 72° |
| 2026-05-03 23:53 | 46.93448 | -57.63982 | 34543 ft | 529 kts | 72° |
| 2026-05-03 23:53 | 46.96495 | -57.54162 | 34614 ft | 531 kts | 72° |
| 2026-05-03 23:54 | 46.99535 | -57.44322 | 34632 ft | 534 kts | 72° |
| 2026-05-03 23:54 | 47.02603 | -57.34364 | 34631 ft | 535 kts | 72° |
| 2026-05-03 23:55 | 47.05659 | -57.24409 | 34638 ft | 535 kts | 72° |
| 2026-05-03 23:55 | 47.08704 | -57.14450 | 34649 ft | 534 kts | 72° |
| 2026-05-03 23:56 | 47.11717 | -57.04556 | 34648 ft | 532 kts | 72° |
| 2026-05-03 23:56 | 47.14721 | -56.94648 | 34650 ft | 530 kts | 72° |
| 2026-05-03 23:57 | 47.17706 | -56.84762 | 34588 ft | 528 kts | 72° |
| 2026-05-03 23:57 | 47.20676 | -56.74882 | 34647 ft | 529 kts | 72° |
| 2026-05-03 23:58 | 47.23652 | -56.64937 | 34628 ft | 534 kts | 72° |
| 2026-05-03 23:58 | 47.26634 | -56.54934 | 34652 ft | 539 kts | 72° |
| 2026-05-03 23:59 | 47.29657 | -56.44760 | 34638 ft | 543 kts | 72° |
| 2026-05-03 23:59 | 47.32692 | -56.34512 | 34626 ft | 546 kts | 72° |
| 2026-05-04 00:00 | 47.35718 | -56.24252 | 34613 ft | 543 kts | 72° |
| 2026-05-04 00:00 | 47.38698 | -56.14111 | 34618 ft | 540 kts | 72° |
| 2026-05-04 00:01 | 47.41674 | -56.03931 | 34556 ft | 539 kts | 72° |
| 2026-05-04 00:01 | 47.44629 | -55.93768 | 34609 ft | 539 kts | 72° |
| 2026-05-04 00:02 | 47.47576 | -55.83593 | 34616 ft | 541 kts | 72° |
| 2026-05-04 00:02 | 47.50543 | -55.73312 | 34645 ft | 544 kts | 72° |
| 2026-05-04 00:03 | 47.53507 | -55.63000 | 34629 ft | 545 kts | 72° |
| 2026-05-04 00:03 | 47.56468 | -55.52658 | 34678 ft | 546 kts | 72° |
| 2026-05-04 00:04 | 47.59422 | -55.42293 | 34688 ft | 545 kts | 72° |
| 2026-05-04 00:04 | 47.62338 | -55.32019 | 34691 ft | 544 kts | 72° |
| 2026-05-04 00:05 | 47.65263 | -55.21668 | 34712 ft | 543 kts | 72° |
| 2026-05-04 00:05 | 47.68173 | -55.11319 | 34736 ft | 544 kts | 72° |
| 2026-05-04 00:06 | 47.71085 | -55.00919 | 34749 ft | 546 kts | 72° |
| 2026-05-04 00:06 | 47.74000 | -54.90466 | 34790 ft | 548 kts | 72° |
| 2026-05-04 00:07 | 47.76899 | -54.80026 | 34788 ft | 550 kts | 72° |
| 2026-05-04 00:07 | 47.79809 | -54.69503 | 34797 ft | 550 kts | 72° |
| 2026-05-04 00:08 | 47.82711 | -54.58961 | 34804 ft | 550 kts | 72° |
| 2026-05-04 00:08 | 47.85585 | -54.48474 | 34806 ft | 549 kts | 73° |
| 2026-05-04 00:09 | 47.88459 | -54.37938 | 34808 ft | 548 kts | 73° |
| 2026-05-04 00:09 | 47.91318 | -54.27410 | 34803 ft | 547 kts | 72° |
| 2026-05-04 00:10 | 47.94166 | -54.16876 | 34810 ft | 548 kts | 72° |
| 2026-05-04 00:10 | 47.97014 | -54.06292 | 34823 ft | 550 kts | 72° |
| 2026-05-04 00:11 | 47.99859 | -53.95670 | 34823 ft | 551 kts | 73° |
| 2026-05-04 00:11 | 48.02698 | -53.85025 | 34828 ft | 552 kts | 72° |
| 2026-05-04 00:12 | 48.05535 | -53.74340 | 34832 ft | 553 kts | 72° |
| 2026-05-04 00:12 | 48.08353 | -53.63681 | 34831 ft | 554 kts | 73° |
| 2026-05-04 00:13 | 48.11172 | -53.52967 | 34834 ft | 554 kts | 73° |
| 2026-05-04 00:13 | 48.13984 | -53.42224 | 34831 ft | 553 kts | 72° |
| 2026-05-04 00:14 | 48.16764 | -53.31559 | 34841 ft | 552 kts | 72° |
| 2026-05-04 00:14 | 48.19553 | -53.20810 | 34850 ft | 552 kts | 72° |
| 2026-05-04 00:15 | 48.22326 | -53.10068 | 34854 ft | 553 kts | 72° |
| 2026-05-04 00:15 | 48.25095 | -52.99291 | 34853 ft | 553 kts | 71° |
| 2026-05-04 00:16 | 48.27855 | -52.88501 | 34857 ft | 553 kts | 72° |
| 2026-05-04 00:16 | 48.30592 | -52.77751 | 34855 ft | 553 kts | 72° |
| 2026-05-04 00:17 | 48.33338 | -52.66914 | 34858 ft | 554 kts | 72° |
| 2026-05-04 00:17 | 48.36055 | -52.56135 | 34864 ft | 554 kts | 71° |
| 2026-05-04 00:18 | 48.38781 | -52.45275 | 34865 ft | 555 kts | 72° |
| 2026-05-04 00:18 | 48.41497 | -52.34400 | 34872 ft | 555 kts | 72° |
| 2026-05-04 00:19 | 48.44206 | -52.23498 | 34872 ft | 556 kts | 72° |
| 2026-05-04 00:19 | 48.46901 | -52.12596 | 34868 ft | 556 kts | 71° |
| 2026-05-04 00:20 | 48.49584 | -52.01704 | 34876 ft | 557 kts | 71° |
| 2026-05-04 00:20 | 48.52342 | -51.90784 | 34879 ft | 557 kts | 70° |
| 2026-05-04 00:21 | 48.55199 | -51.79887 | 34879 ft | 558 kts | 70° |
| 2026-05-04 00:21 | 48.58049 | -51.68976 | 34861 ft | 557 kts | 69° |
| 2026-05-04 00:22 | 48.60862 | -51.58069 | 34882 ft | 556 kts | 69° |
| 2026-05-04 00:22 | 48.63650 | -51.47162 | 34893 ft | 556 kts | 69° |
| 2026-05-04 00:23 | 48.66403 | -51.36336 | 34886 ft | 555 kts | 69° |
| 2026-05-04 00:23 | 48.69168 | -51.25418 | 34898 ft | 555 kts | 69° |
| 2026-05-04 00:24 | 48.71929 | -51.14476 | 34897 ft | 555 kts | 69° |
| 2026-05-04 00:24 | 48.74653 | -51.03625 | 34899 ft | 554 kts | 69° |
| 2026-05-04 00:25 | 48.77389 | -50.92669 | 34905 ft | 554 kts | 69° |
| 2026-05-04 00:25 | 48.80108 | -50.81727 | 34918 ft | 554 kts | 69° |
| 2026-05-04 00:26 | 48.82818 | -50.70769 | 34903 ft | 553 kts | 69° |
| 2026-05-04 00:26 | 48.85495 | -50.59894 | 34915 ft | 553 kts | 69° |
| 2026-05-04 00:27 | 48.88177 | -50.48943 | 34924 ft | 553 kts | 69° |
| 2026-05-04 00:27 | 48.90850 | -50.37974 | 34931 ft | 553 kts | 69° |
| 2026-05-04 00:28 | 48.93510 | -50.27002 | 34929 ft | 553 kts | 69° |
| 2026-05-04 00:28 | 48.96161 | -50.16012 | 34930 ft | 553 kts | 69° |
| 2026-05-04 00:29 | 48.98802 | -50.05017 | 34945 ft | 553 kts | 69° |
| 2026-05-04 00:29 | 49.01464 | -49.94009 | 34926 ft | 553 kts | 68° |
| 2026-05-04 00:30 | 49.04203 | -49.83148 | 34945 ft | 552 kts | 68° |
| 2026-05-04 00:30 | 49.06510 | -49.74048 | 34939 ft | 552 kts | 67° |
| 2026-05-04 00:31 | 49.09705 | -49.61307 | 34959 ft | 552 kts | 67° |
| 2026-05-04 00:31 | 49.11984 | -49.52122 | 34954 ft | 552 kts | 67° |
| 2026-05-04 00:32 | 49.14689 | -49.41157 | 34953 ft | 551 kts | 67° |
| 2026-05-04 00:32 | 49.17368 | -49.30245 | 34958 ft | 551 kts | 68° |
| 2026-05-04 00:33 | 49.21387 | -49.13782 | 34974 ft | 550 kts | 67° |
| 2026-05-04 00:34 | 49.24053 | -49.02793 | 34958 ft | 550 kts | 67° |
| 2026-05-04 00:34 | 49.26711 | -48.91786 | 34964 ft | 550 kts | 67° |
| 2026-05-04 00:35 | 49.29336 | -48.80861 | 34985 ft | 550 kts | 68° |
| 2026-05-04 00:35 | 49.31962 | -48.69872 | 34984 ft | 549 kts | 67° |
| 2026-05-04 00:36 | 49.34582 | -48.58857 | 34983 ft | 548 kts | 67° |
| 2026-05-04 00:36 | 49.37173 | -48.47904 | 34995 ft | 548 kts | 67° |
| 2026-05-04 00:37 | 49.39761 | -48.36913 | 34996 ft | 548 kts | 67° |
| 2026-05-04 00:37 | 49.42343 | -48.25891 | 35004 ft | 548 kts | 66° |
| 2026-05-04 00:38 | 49.44915 | -48.14859 | 35012 ft | 548 kts | 67° |
| 2026-05-04 00:38 | 49.47478 | -48.03801 | 35002 ft | 549 kts | 67° |
| 2026-05-04 00:39 | 49.50018 | -47.92790 | 35017 ft | 549 kts | 67° |
| 2026-05-04 00:39 | 49.52563 | -47.81695 | 35004 ft | 549 kts | 66° |
| 2026-05-04 00:40 | 49.55098 | -47.70588 | 35020 ft | 550 kts | 66° |
| 2026-05-04 00:40 | 49.57625 | -47.59462 | 35035 ft | 550 kts | 66° |
| 2026-05-04 00:41 | 49.60146 | -47.48304 | 35033 ft | 550 kts | 66° |
| 2026-05-04 00:41 | 49.62631 | -47.37238 | 35049 ft | 550 kts | 66° |
| 2026-05-04 00:42 | 49.65121 | -47.26096 | 35052 ft | 549 kts | 66° |
| 2026-05-04 00:42 | 49.67601 | -47.14944 | 35061 ft | 548 kts | 66° |
| 2026-05-04 00:43 | 49.70065 | -47.03797 | 35044 ft | 547 kts | 66° |
| 2026-05-04 00:43 | 49.72499 | -46.92731 | 35056 ft | 546 kts | 66° |
| 2026-05-04 00:44 | 49.74923 | -46.81645 | 35061 ft | 543 kts | 66° |
| 2026-05-04 00:44 | 49.77326 | -46.70600 | 35062 ft | 541 kts | 66° |
| 2026-05-04 00:45 | 49.79711 | -46.59580 | 35072 ft | 539 kts | 66° |
| 2026-05-04 00:45 | 49.82079 | -46.48586 | 35116 ft | 537 kts | 66° |
| 2026-05-04 00:46 | 49.84427 | -46.37623 | 35088 ft | 535 kts | 66° |
| 2026-05-04 00:46 | 49.86743 | -46.26745 | 35088 ft | 533 kts | 66° |
| 2026-05-04 00:47 | 49.89057 | -46.15823 | 35100 ft | 532 kts | 66° |
| 2026-05-04 00:47 | 49.91361 | -46.04893 | 35112 ft | 532 kts | 66° |
| 2026-05-04 00:48 | 49.93658 | -45.93939 | 35119 ft | 533 kts | 66° |
| 2026-05-04 00:48 | 49.95933 | -45.83026 | 35119 ft | 534 kts | 66° |
| 2026-05-04 00:49 | 49.98227 | -45.71959 | 35113 ft | 536 kts | 66° |
| 2026-05-04 00:49 | 50.00490 | -45.60977 | 35156 ft | 536 kts | 66° |
| 2026-05-04 00:50 | 50.02753 | -45.49932 | 35121 ft | 535 kts | 66° |
| 2026-05-04 00:50 | 50.05001 | -45.38900 | 35134 ft | 533 kts | 66° |
| 2026-05-04 00:51 | 50.07230 | -45.27903 | 35132 ft | 531 kts | 66° |
| 2026-05-04 00:51 | 50.09426 | -45.17012 | 35172 ft | 530 kts | 67° |
| 2026-05-04 00:52 | 50.11627 | -45.06040 | 35166 ft | 531 kts | 67° |
| 2026-05-04 00:52 | 50.13823 | -44.95026 | 35162 ft | 532 kts | 67° |
| 2026-05-04 00:53 | 50.16011 | -44.83991 | 35167 ft | 533 kts | 67° |
| 2026-05-04 00:53 | 50.18194 | -44.72916 | 35173 ft | 534 kts | 67° |
| 2026-05-04 00:54 | 50.20368 | -44.61822 | 35179 ft | 534 kts | 68° |
| 2026-05-04 00:54 | 50.22517 | -44.50786 | 35182 ft | 533 kts | 68° |
| 2026-05-04 00:55 | 50.24660 | -44.39714 | 35178 ft | 531 kts | 68° |
| 2026-05-04 00:55 | 50.26785 | -44.28680 | 35196 ft | 529 kts | 68° |
| 2026-05-04 00:56 | 50.28880 | -44.17735 | 35202 ft | 527 kts | 69° |
| 2026-05-04 00:56 | 50.30972 | -44.06749 | 35202 ft | 525 kts | 69° |
| 2026-05-04 00:57 | 50.33044 | -43.95804 | 35206 ft | 523 kts | 69° |
| 2026-05-04 00:57 | 50.35088 | -43.84944 | 35220 ft | 522 kts | 70° |
| 2026-05-04 00:58 | 50.37132 | -43.74023 | 35235 ft | 522 kts | 70° |
| 2026-05-04 00:58 | 50.39163 | -43.63099 | 35222 ft | 522 kts | 70° |
| 2026-05-04 00:59 | 50.41175 | -43.52214 | 35233 ft | 522 kts | 71° |
| 2026-05-04 00:59 | 50.43186 | -43.41273 | 35238 ft | 522 kts | 71° |
| 2026-05-04 01:00 | 50.45187 | -43.30316 | 35264 ft | 521 kts | 71° |
| 2026-05-04 01:00 | 50.47175 | -43.19367 | 35256 ft | 520 kts | 71° |
| 2026-05-04 01:01 | 50.49135 | -43.08514 | 35252 ft | 519 kts | 72° |
| 2026-05-04 01:01 | 50.51096 | -42.97587 | 35254 ft | 518 kts | 72° |
| 2026-05-04 01:02 | 50.53040 | -42.86684 | 35253 ft | 517 kts | 72° |
| 2026-05-04 01:02 | 50.54970 | -42.75798 | 35270 ft | 516 kts | 72° |
| 2026-05-04 01:03 | 50.56875 | -42.64983 | 35271 ft | 516 kts | 72° |
| 2026-05-04 01:03 | 50.58779 | -42.54109 | 35277 ft | 515 kts | 72° |
| 2026-05-04 01:04 | 50.60675 | -42.43217 | 35281 ft | 515 kts | 72° |
| 2026-05-04 01:04 | 50.62559 | -42.32333 | 35290 ft | 515 kts | 73° |
| 2026-05-04 01:05 | 50.64435 | -42.21418 | 35287 ft | 515 kts | 73° |
| 2026-05-04 01:05 | 50.66299 | -42.10502 | 35297 ft | 515 kts | 73° |
| 2026-05-04 01:06 | 50.68144 | -41.99639 | 35293 ft | 515 kts | 73° |
| 2026-05-04 01:06 | 50.69984 | -41.88730 | 35323 ft | 515 kts | 74° |
| 2026-05-04 01:07 | 50.71818 | -41.77795 | 35303 ft | 515 kts | 74° |
| 2026-05-04 01:07 | 50.73628 | -41.66926 | 35309 ft | 514 kts | 74° |
| 2026-05-04 01:08 | 50.75437 | -41.55992 | 35302 ft | 514 kts | 74° |
| 2026-05-04 01:08 | 50.77235 | -41.45060 | 35319 ft | 514 kts | 75° |
| 2026-05-04 01:09 | 50.79025 | -41.34107 | 35320 ft | 514 kts | 75° |
| 2026-05-04 01:09 | 50.80800 | -41.23173 | 35315 ft | 514 kts | 75° |
| 2026-05-04 01:10 | 50.82557 | -41.12280 | 35319 ft | 514 kts | 75° |
| 2026-05-04 01:10 | 50.84310 | -41.01340 | 35329 ft | 513 kts | 75° |
| 2026-05-04 01:11 | 50.86054 | -40.90383 | 35332 ft | 513 kts | 76° |
| 2026-05-04 01:11 | 50.87790 | -40.79405 | 35334 ft | 513 kts | 76° |
| 2026-05-04 01:12 | 50.89511 | -40.68447 | 35336 ft | 512 kts | 76° |
| 2026-05-04 01:12 | 50.91211 | -40.57545 | 35342 ft | 512 kts | 76° |
| 2026-05-04 01:13 | 50.92911 | -40.46579 | 35343 ft | 512 kts | 76° |
| 2026-05-04 01:13 | 50.94597 | -40.35625 | 35345 ft | 511 kts | 76° |
| 2026-05-04 01:14 | 50.96274 | -40.24653 | 35351 ft | 511 kts | 77° |
| 2026-05-04 01:14 | 50.97938 | -40.13693 | 35353 ft | 510 kts | 77° |
| 2026-05-04 01:15 | 50.99584 | -40.02817 | 35346 ft | 509 kts | 76° |
| 2026-05-04 01:15 | 51.01852 | -39.92175 | 35372 ft | 508 kts | 68° |
| 2026-05-04 01:16 | 51.04523 | -39.81775 | 35362 ft | 508 kts | 68° |
| 2026-05-04 01:16 | 51.07185 | -39.71365 | 35367 ft | 507 kts | 68° |
| 2026-05-04 01:17 | 51.09781 | -39.61019 | 35369 ft | 506 kts | 69° |
| 2026-05-04 01:17 | 51.12367 | -39.50586 | 35372 ft | 506 kts | 69° |
| 2026-05-04 01:18 | 51.14940 | -39.40146 | 35374 ft | 506 kts | 69° |
| 2026-05-04 01:18 | 51.17503 | -39.29707 | 35369 ft | 506 kts | 69° |
| 2026-05-04 01:19 | 51.20059 | -39.19253 | 35375 ft | 505 kts | 69° |
| 2026-05-04 01:19 | 51.22177 | -39.10550 | 35378 ft | 505 kts | 69° |
| 2026-05-04 01:20 | 51.24712 | -39.00093 | 35382 ft | 505 kts | 69° |
| 2026-05-04 01:20 | 51.27239 | -38.89614 | 35389 ft | 505 kts | 69° |
| 2026-05-04 01:21 | 51.29757 | -38.79126 | 35387 ft | 505 kts | 69° |
| 2026-05-04 01:21 | 51.32246 | -38.68709 | 35390 ft | 505 kts | 70° |
| 2026-05-04 01:22 | 51.34745 | -38.58196 | 35393 ft | 505 kts | 70° |
| 2026-05-04 01:22 | 51.37234 | -38.47677 | 35396 ft | 505 kts | 70° |
| 2026-05-04 01:23 | 51.39721 | -38.37113 | 35394 ft | 505 kts | 70° |
| 2026-05-04 01:23 | 51.42176 | -38.26635 | 35398 ft | 505 kts | 70° |
| 2026-05-04 01:24 | 51.44638 | -38.16074 | 35400 ft | 506 kts | 70° |
| 2026-05-04 01:24 | 51.47094 | -38.05490 | 35397 ft | 506 kts | 70° |
| 2026-05-04 01:25 | 51.49537 | -37.94906 | 35403 ft | 506 kts | 70° |
| 2026-05-04 01:25 | 51.51975 | -37.84291 | 35406 ft | 506 kts | 70° |
| 2026-05-04 01:26 | 51.54402 | -37.73671 | 35407 ft | 507 kts | 70° |
| 2026-05-04 01:26 | 51.56825 | -37.63019 | 35408 ft | 507 kts | 70° |
| 2026-05-04 01:27 | 51.59222 | -37.52426 | 35403 ft | 507 kts | 70° |
| 2026-05-04 01:27 | 51.61624 | -37.41755 | 35409 ft | 507 kts | 70° |
| 2026-05-04 01:28 | 51.64014 | -37.31082 | 35418 ft | 507 kts | 70° |
| 2026-05-04 01:28 | 51.66383 | -37.20452 | 35412 ft | 507 kts | 70° |
| 2026-05-04 01:29 | 51.68753 | -37.09759 | 35412 ft | 506 kts | 70° |
| 2026-05-04 01:29 | 51.71116 | -36.99047 | 35416 ft | 506 kts | 70° |
| 2026-05-04 01:30 | 51.73468 | -36.88331 | 35423 ft | 506 kts | 70° |
| 2026-05-04 01:30 | 51.75795 | -36.77668 | 35424 ft | 506 kts | 71° |
| 2026-05-04 01:31 | 51.78126 | -36.66932 | 35419 ft | 506 kts | 71° |
| 2026-05-04 01:31 | 51.80447 | -36.56188 | 35419 ft | 506 kts | 71° |
| 2026-05-04 01:32 | 51.82745 | -36.45497 | 35422 ft | 506 kts | 71° |
| 2026-05-04 01:32 | 51.85043 | -36.34746 | 35418 ft | 506 kts | 71° |
| 2026-05-04 01:33 | 51.87334 | -36.23969 | 35434 ft | 507 kts | 71° |
| 2026-05-04 01:33 | 51.88481 | -36.18555 | 35614 ft | 508 kts | 71° |
| 2026-05-04 01:33 | 51.89623 | -36.13147 | 35937 ft | 507 kts | 71° |
| 2026-05-04 01:33 | 51.90759 | -36.07755 | 36307 ft | 504 kts | 71° |
| 2026-05-04 01:34 | 51.91885 | -36.02392 | 36655 ft | 502 kts | 71° |
| 2026-05-04 01:34 | 51.92995 | -35.97095 | 36948 ft | 502 kts | 71° |
| 2026-05-04 01:34 | 51.94114 | -35.91740 | 37221 ft | 502 kts | 71° |
| 2026-05-04 01:34 | 51.95234 | -35.86371 | 37364 ft | 503 kts | 71° |
| 2026-05-04 01:35 | 51.96352 | -35.80990 | 37400 ft | 505 kts | 71° |
| 2026-05-04 01:35 | 51.98583 | -35.70213 | 37416 ft | 503 kts | 71° |
| 2026-05-04 01:36 | 52.00796 | -35.59469 | 37417 ft | 500 kts | 71° |
| 2026-05-04 01:36 | 52.02987 | -35.48767 | 37438 ft | 498 kts | 71° |
| 2026-05-04 01:37 | 52.05147 | -35.38162 | 37443 ft | 497 kts | 71° |
| 2026-05-04 01:37 | 52.07312 | -35.27479 | 37429 ft | 498 kts | 71° |
| 2026-05-04 01:38 | 52.09471 | -35.16762 | 37437 ft | 499 kts | 71° |
| 2026-05-04 01:38 | 52.11626 | -35.06007 | 37440 ft | 500 kts | 71° |
| 2026-05-04 01:39 | 52.13764 | -34.95281 | 37434 ft | 501 kts | 71° |
| 2026-05-04 01:39 | 52.15907 | -34.84469 | 37434 ft | 502 kts | 71° |
| 2026-05-04 01:40 | 52.18046 | -34.73618 | 37452 ft | 503 kts | 71° |
| 2026-05-04 01:40 | 52.20174 | -34.62755 | 37435 ft | 503 kts | 71° |
| 2026-05-04 01:41 | 52.22283 | -34.51935 | 37439 ft | 503 kts | 71° |
| 2026-05-04 01:41 | 52.24396 | -34.41033 | 37440 ft | 503 kts | 72° |
| 2026-05-04 01:42 | 52.26496 | -34.30133 | 37436 ft | 503 kts | 72° |
| 2026-05-04 01:42 | 52.28587 | -34.19216 | 37439 ft | 503 kts | 72° |
| 2026-05-04 01:43 | 52.30652 | -34.08374 | 37447 ft | 502 kts | 72° |
| 2026-05-04 01:43 | 52.32721 | -33.97450 | 37455 ft | 502 kts | 72° |
| 2026-05-04 01:44 | 52.34774 | -33.86544 | 37440 ft | 501 kts | 72° |
| 2026-05-04 01:44 | 52.36813 | -33.75651 | 37440 ft | 501 kts | 72° |
| 2026-05-04 01:45 | 52.38831 | -33.64808 | 37455 ft | 500 kts | 72° |
| 2026-05-04 01:45 | 52.41859 | -33.48417 | 37441 ft | 500 kts | 72° |
| 2026-05-04 01:46 | 52.43848 | -33.37569 | 37443 ft | 500 kts | 72° |
| 2026-05-04 01:46 | 52.45839 | -33.26644 | 37446 ft | 500 kts | 72° |
| 2026-05-04 01:47 | 52.47824 | -33.15690 | 37445 ft | 501 kts | 72° |
| 2026-05-04 01:47 | 52.49801 | -33.04713 | 37445 ft | 501 kts | 72° |
| 2026-05-04 01:48 | 52.51766 | -32.93740 | 37442 ft | 501 kts | 72° |
| 2026-05-04 01:48 | 52.53724 | -32.82737 | 37438 ft | 502 kts | 73° |
| 2026-05-04 01:49 | 52.55662 | -32.71780 | 37447 ft | 502 kts | 73° |
| 2026-05-04 01:49 | 52.57602 | -32.60740 | 37453 ft | 502 kts | 73° |
| 2026-05-04 01:50 | 52.59534 | -32.49680 | 37445 ft | 502 kts | 73° |
| 2026-05-04 01:50 | 52.61441 | -32.38700 | 37443 ft | 502 kts | 73° |
| 2026-05-04 01:51 | 52.63351 | -32.27628 | 37438 ft | 502 kts | 73° |
| 2026-05-04 01:51 | 52.65250 | -32.16551 | 37438 ft | 502 kts | 73° |
| 2026-05-04 01:52 | 52.67141 | -32.05450 | 37443 ft | 502 kts | 73° |
| 2026-05-04 01:52 | 52.69019 | -31.94358 | 37435 ft | 502 kts | 73° |
| 2026-05-04 01:53 | 52.70875 | -31.83323 | 37437 ft | 502 kts | 73° |
| 2026-05-04 01:53 | 52.72730 | -31.72229 | 37443 ft | 501 kts | 73° |
| 2026-05-04 01:54 | 52.74574 | -31.61123 | 37436 ft | 501 kts | 73° |
| 2026-05-04 01:54 | 52.76406 | -31.50015 | 37435 ft | 501 kts | 73° |
| 2026-05-04 01:55 | 52.78230 | -31.38893 | 37439 ft | 501 kts | 73° |
| 2026-05-04 01:55 | 52.80028 | -31.27848 | 37433 ft | 501 kts | 73° |
| 2026-05-04 01:56 | 52.81826 | -31.16737 | 37441 ft | 501 kts | 73° |
| 2026-05-04 01:56 | 52.83619 | -31.05580 | 37435 ft | 501 kts | 73° |
| 2026-05-04 01:57 | 52.85388 | -30.94502 | 37435 ft | 501 kts | 73° |
| 2026-05-04 01:57 | 52.87160 | -30.83326 | 37432 ft | 501 kts | 74° |
| 2026-05-04 01:58 | 52.88919 | -30.72161 | 37436 ft | 501 kts | 74° |
| 2026-05-04 01:58 | 52.90658 | -30.61044 | 37429 ft | 501 kts | 74° |
| 2026-05-04 01:59 | 52.92396 | -30.49861 | 37429 ft | 501 kts | 74° |
| 2026-05-04 01:59 | 52.94121 | -30.38687 | 37427 ft | 501 kts | 74° |
| 2026-05-04 02:00 | 52.95837 | -30.27487 | 37429 ft | 501 kts | 74° |
| 2026-05-04 02:00 | 52.97545 | -30.16271 | 37436 ft | 501 kts | 75° |
| 2026-05-04 02:01 | 52.99242 | -30.05049 | 37428 ft | 500 kts | 75° |
| 2026-05-04 02:01 | 53.00902 | -29.93905 | 37426 ft | 500 kts | 75° |
| 2026-05-04 02:02 | 53.02516 | -29.82658 | 37425 ft | 500 kts | 76° |
| 2026-05-04 02:02 | 53.04110 | -29.71419 | 37429 ft | 499 kts | 76° |
| 2026-05-04 02:03 | 53.05690 | -29.60238 | 37422 ft | 499 kts | 76° |
| 2026-05-04 02:03 | 53.07268 | -29.49015 | 37419 ft | 498 kts | 76° |
| 2026-05-04 02:04 | 53.08834 | -29.37807 | 37421 ft | 497 kts | 76° |
| 2026-05-04 02:04 | 53.10392 | -29.26574 | 37418 ft | 497 kts | 76° |
| 2026-05-04 02:05 | 53.11937 | -29.15344 | 37421 ft | 497 kts | 77° |
| 2026-05-04 02:05 | 53.13461 | -29.04187 | 37414 ft | 497 kts | 77° |
| 2026-05-04 02:06 | 53.14983 | -28.92956 | 37412 ft | 497 kts | 77° |
| 2026-05-04 02:06 | 53.16496 | -28.81709 | 37412 ft | 497 kts | 77° |
| 2026-05-04 02:07 | 53.17996 | -28.70468 | 37416 ft | 497 kts | 77° |
| 2026-05-04 02:07 | 53.19486 | -28.59215 | 37408 ft | 497 kts | 77° |
| 2026-05-04 02:08 | 53.20967 | -28.47941 | 37405 ft | 497 kts | 77° |
| 2026-05-04 02:08 | 53.22427 | -28.36742 | 37404 ft | 497 kts | 77° |
| 2026-05-04 02:09 | 53.23882 | -28.25487 | 37401 ft | 496 kts | 77° |
| 2026-05-04 02:09 | 53.25330 | -28.14204 | 37406 ft | 496 kts | 77° |
| 2026-05-04 02:10 | 53.26526 | -28.04811 | 37400 ft | 496 kts | 77° |
| 2026-05-04 02:10 | 53.27954 | -27.93513 | 37402 ft | 496 kts | 78° |
| 2026-05-04 02:11 | 53.29371 | -27.82215 | 37399 ft | 496 kts | 78° |
| 2026-05-04 02:11 | 53.30774 | -27.70928 | 37405 ft | 496 kts | 78° |
| 2026-05-04 02:12 | 53.32159 | -27.59699 | 37391 ft | 495 kts | 78° |
| 2026-05-04 02:12 | 53.33540 | -27.48404 | 37390 ft | 494 kts | 78° |
| 2026-05-04 02:13 | 53.34907 | -27.37133 | 37390 ft | 494 kts | 78° |
| 2026-05-04 02:13 | 53.36257 | -27.25911 | 37388 ft | 493 kts | 78° |
| 2026-05-04 02:14 | 53.37602 | -27.14630 | 37388 ft | 493 kts | 78° |
| 2026-05-04 02:14 | 53.38935 | -27.03359 | 37386 ft | 493 kts | 78° |
| 2026-05-04 02:15 | 53.40249 | -26.92145 | 37386 ft | 493 kts | 78° |
| 2026-05-04 02:15 | 53.41563 | -26.80844 | 37386 ft | 493 kts | 78° |
| 2026-05-04 02:16 | 53.42858 | -26.69602 | 37389 ft | 493 kts | 78° |
| 2026-05-04 02:16 | 53.44149 | -26.58290 | 37383 ft | 493 kts | 78° |
| 2026-05-04 02:17 | 53.45431 | -26.46967 | 37377 ft | 493 kts | 78° |
| 2026-05-04 02:17 | 53.46702 | -26.35634 | 37377 ft | 493 kts | 78° |
| 2026-05-04 02:18 | 53.47961 | -26.24302 | 37375 ft | 493 kts | 79° |
| 2026-05-04 02:18 | 53.49201 | -26.13050 | 37379 ft | 493 kts | 79° |
| 2026-05-04 02:19 | 53.50441 | -26.01686 | 37371 ft | 493 kts | 79° |
| 2026-05-04 02:19 | 53.51660 | -25.90408 | 37372 ft | 493 kts | 79° |
| 2026-05-04 02:20 | 53.52875 | -25.79068 | 37366 ft | 493 kts | 79° |
| 2026-05-04 02:20 | 53.54080 | -25.67707 | 37366 ft | 492 kts | 79° |
| 2026-05-04 02:21 | 53.55267 | -25.56417 | 37361 ft | 492 kts | 79° |
| 2026-05-04 02:21 | 53.56448 | -25.45073 | 37361 ft | 492 kts | 79° |
| 2026-05-04 02:22 | 53.57620 | -25.33705 | 37355 ft | 492 kts | 79° |
| 2026-05-04 02:22 | 53.58780 | -25.22338 | 37356 ft | 492 kts | 79° |
| 2026-05-04 02:23 | 53.59923 | -25.11036 | 37364 ft | 492 kts | 79° |
| 2026-05-04 02:23 | 53.61062 | -24.99654 | 37353 ft | 492 kts | 79° |
| 2026-05-04 02:24 | 53.62188 | -24.88286 | 37350 ft | 491 kts | 79° |
| 2026-05-04 02:24 | 53.63297 | -24.76984 | 37343 ft | 491 kts | 79° |
| 2026-05-04 02:25 | 53.64401 | -24.65610 | 37350 ft | 492 kts | 79° |
| 2026-05-04 02:25 | 53.65495 | -24.54234 | 37346 ft | 492 kts | 79° |
| 2026-05-04 02:26 | 53.66580 | -24.42824 | 37340 ft | 492 kts | 80° |
| 2026-05-04 02:26 | 53.67654 | -24.31413 | 37340 ft | 492 kts | 80° |
| 2026-05-04 02:27 | 53.68709 | -24.20074 | 37334 ft | 492 kts | 80° |
| 2026-05-04 02:27 | 53.69763 | -24.08642 | 37340 ft | 493 kts | 80° |
| 2026-05-04 02:28 | 53.70807 | -23.97183 | 37328 ft | 493 kts | 80° |
| 2026-05-04 02:28 | 53.71838 | -23.85744 | 37326 ft | 492 kts | 81° |
| 2026-05-04 02:29 | 53.72850 | -23.74379 | 37324 ft | 492 kts | 81° |
| 2026-05-04 02:29 | 53.73858 | -23.62945 | 37325 ft | 492 kts | 81° |
| 2026-05-04 02:30 | 53.74858 | -23.51475 | 37322 ft | 492 kts | 81° |
| 2026-05-04 02:30 | 53.75843 | -23.40030 | 37319 ft | 492 kts | 81° |
| 2026-05-04 02:31 | 53.76814 | -23.28634 | 37317 ft | 492 kts | 81° |
| 2026-05-04 02:31 | 53.77776 | -23.17199 | 37315 ft | 491 kts | 81° |
| 2026-05-04 02:32 | 53.78730 | -23.05733 | 37310 ft | 491 kts | 81° |
| 2026-05-04 02:32 | 53.79672 | -22.94275 | 37314 ft | 491 kts | 81° |
| 2026-05-04 02:33 | 53.80596 | -22.82895 | 37305 ft | 491 kts | 81° |
| 2026-05-04 02:33 | 53.81514 | -22.71446 | 37301 ft | 491 kts | 81° |
| 2026-05-04 02:34 | 53.82422 | -22.59978 | 37304 ft | 491 kts | 82° |
| 2026-05-04 02:34 | 53.83320 | -22.48509 | 37305 ft | 491 kts | 82° |
| 2026-05-04 02:35 | 53.84206 | -22.37030 | 37298 ft | 491 kts | 81° |
| 2026-05-04 02:35 | 53.85074 | -22.25644 | 37292 ft | 490 kts | 81° |
| 2026-05-04 02:36 | 53.85937 | -22.14189 | 37294 ft | 490 kts | 81° |
| 2026-05-04 02:36 | 53.86789 | -22.02721 | 37292 ft | 490 kts | 82° |
| 2026-05-04 02:37 | 53.87631 | -21.91247 | 37297 ft | 490 kts | 82° |
| 2026-05-04 02:37 | 53.88454 | -21.79857 | 37292 ft | 490 kts | 82° |
| 2026-05-04 02:38 | 53.89275 | -21.68359 | 37294 ft | 490 kts | 82° |
| 2026-05-04 02:38 | 53.90084 | -21.56852 | 37294 ft | 490 kts | 82° |
| 2026-05-04 02:39 | 53.90882 | -21.45362 | 37297 ft | 491 kts | 82° |
| 2026-05-04 02:39 | 53.91668 | -21.33860 | 37289 ft | 490 kts | 82° |
| 2026-05-04 02:40 | 53.92444 | -21.22369 | 37285 ft | 489 kts | 83° |
| 2026-05-04 02:40 | 53.93206 | -21.10895 | 37287 ft | 489 kts | 82° |
| 2026-05-04 02:41 | 53.93953 | -20.99486 | 37281 ft | 489 kts | 83° |
| 2026-05-04 02:41 | 53.94695 | -20.87986 | 37287 ft | 488 kts | 83° |
| 2026-05-04 02:42 | 53.95423 | -20.76524 | 37283 ft | 487 kts | 82° |
| 2026-05-04 02:42 | 53.96135 | -20.65149 | 37278 ft | 487 kts | 83° |
| 2026-05-04 02:43 | 53.96839 | -20.53718 | 37271 ft | 486 kts | 83° |
| 2026-05-04 02:43 | 53.97532 | -20.42276 | 37259 ft | 486 kts | 83° |
| 2026-05-04 02:44 | 53.98214 | -20.30855 | 37279 ft | 486 kts | 82° |
| 2026-05-04 02:44 | 53.98885 | -20.19423 | 37255 ft | 485 kts | 83° |
| 2026-05-04 02:45 | 53.99546 | -20.07998 | 37257 ft | 485 kts | 84° |
| 2026-05-04 02:45 | 54.00116 | -19.96648 | 37280 ft | 485 kts | 85° |
| 2026-05-04 02:46 | 54.00358 | -19.85156 | 37255 ft | 487 kts | 87° |
| 2026-05-04 02:46 | 54.00538 | -19.73655 | 37250 ft | 486 kts | 88° |
| 2026-05-04 02:47 | 54.00725 | -19.62141 | 37258 ft | 486 kts | 86° |
| 2026-05-04 02:47 | 54.00917 | -19.50714 | 37247 ft | 485 kts | 86° |
| 2026-05-04 02:48 | 54.01102 | -19.39387 | 37246 ft | 485 kts | 88° |
| 2026-05-04 02:48 | 54.01191 | -19.33669 | 36474 ft | 482 kts | 88° |
| 2026-05-04 02:48 | 54.01277 | -19.27984 | 36719 ft | 479 kts | 88° |
| 2026-05-04 02:49 | 54.01357 | -19.22441 | 37744 ft | 482 kts | 88° |
| 2026-05-04 02:49 | 54.01436 | -19.16694 | 37515 ft | 488 kts | 88° |
| 2026-05-04 02:49 | 54.01515 | -19.10992 | 37403 ft | 486 kts | 87° |
| 2026-05-04 02:49 | 54.01591 | -19.05266 | 37315 ft | 482 kts | 86° |
| 2026-05-04 02:50 | 54.01732 | -18.93931 | 37246 ft | 476 kts | 87° |
| 2026-05-04 02:50 | 54.01859 | -18.82727 | 37238 ft | 471 kts | 86° |
| 2026-05-04 02:51 | 54.01978 | -18.71531 | 37261 ft | 476 kts | 87° |
| 2026-05-04 02:51 | 54.02088 | -18.60271 | 37245 ft | 481 kts | 87° |
| 2026-05-04 02:52 | 54.02187 | -18.48869 | 37238 ft | 483 kts | 86° |
| 2026-05-04 02:52 | 54.02275 | -18.37429 | 37232 ft | 483 kts | 88° |
| 2026-05-04 02:53 | 54.02352 | -18.26024 | 37230 ft | 481 kts | 87° |
| 2026-05-04 02:53 | 54.02418 | -18.14650 | 37233 ft | 479 kts | 88° |
| 2026-05-04 02:54 | 54.02473 | -18.03405 | 37221 ft | 478 kts | 88° |
| 2026-05-04 02:54 | 54.02517 | -17.92112 | 37220 ft | 476 kts | 88° |
| 2026-05-04 02:55 | 54.02565 | -17.75236 | 37222 ft | 475 kts | 88° |
| 2026-05-04 02:56 | 54.02581 | -17.65909 | 37226 ft | 475 kts | 88° |
| 2026-05-04 02:56 | 54.02590 | -17.54672 | 37229 ft | 475 kts | 88° |
| 2026-05-04 02:57 | 54.02590 | -17.43410 | 37219 ft | 476 kts | 88° |
| 2026-05-04 02:57 | 54.02578 | -17.32211 | 37223 ft | 476 kts | 88° |
| 2026-05-04 02:58 | 54.02556 | -17.20941 | 37221 ft | 477 kts | 88° |
| 2026-05-04 02:58 | 54.02524 | -17.09674 | 37217 ft | 476 kts | 88° |
| 2026-05-04 02:59 | 54.02481 | -16.98403 | 37214 ft | 476 kts | 88° |
| 2026-05-04 02:59 | 54.02427 | -16.87134 | 37211 ft | 475 kts | 88° |
| 2026-05-04 03:00 | 54.02364 | -16.75968 | 37220 ft | 475 kts | 88° |
| 2026-05-04 03:00 | 54.02290 | -16.64735 | 37204 ft | 474 kts | 88° |
| 2026-05-04 03:01 | 54.02205 | -16.53528 | 37211 ft | 474 kts | 88° |
| 2026-05-04 03:01 | 54.02110 | -16.42315 | 37203 ft | 474 kts | 89° |
| 2026-05-04 03:02 | 54.02005 | -16.31112 | 37202 ft | 474 kts | 89° |
| 2026-05-04 03:02 | 54.01889 | -16.19898 | 37202 ft | 474 kts | 89° |
| 2026-05-04 03:03 | 54.01763 | -16.08681 | 37208 ft | 474 kts | 89° |
| 2026-05-04 03:03 | 54.01627 | -15.97529 | 37221 ft | 474 kts | 89° |
| 2026-05-04 03:04 | 54.01479 | -15.86261 | 37209 ft | 475 kts | 89° |
| 2026-05-04 03:04 | 54.01321 | -15.75035 | 37192 ft | 475 kts | 89° |
| 2026-05-04 03:05 | 54.01153 | -15.63804 | 37202 ft | 475 kts | 89° |
| 2026-05-04 03:05 | 54.00975 | -15.52642 | 37200 ft | 475 kts | 89° |
| 2026-05-04 03:06 | 54.00786 | -15.41406 | 37210 ft | 474 kts | 89° |
| 2026-05-04 03:06 | 54.00587 | -15.30188 | 37204 ft | 474 kts | 89° |
| 2026-05-04 03:07 | 54.00378 | -15.19005 | 37198 ft | 473 kts | 89° |
| 2026-05-04 03:07 | 54.00160 | -15.07832 | 37183 ft | 472 kts | 89° |
| 2026-05-04 03:08 | 53.99951 | -14.96751 | 37196 ft | 471 kts | 88° |
| 2026-05-04 03:08 | 53.99973 | -14.85616 | 37201 ft | 470 kts | 86° |
| 2026-05-04 03:09 | 54.00056 | -14.74489 | 37192 ft | 470 kts | 86° |
| 2026-05-04 03:09 | 54.00096 | -14.63430 | 37184 ft | 470 kts | 87° |
| 2026-05-04 03:10 | 54.00105 | -14.52298 | 37183 ft | 470 kts | 87° |
| 2026-05-04 03:10 | 54.00099 | -14.41163 | 37186 ft | 471 kts | 87° |
| 2026-05-04 03:11 | 54.00085 | -14.30021 | 37196 ft | 471 kts | 87° |
| 2026-05-04 03:11 | 54.00062 | -14.18946 | 37182 ft | 471 kts | 87° |
| 2026-05-04 03:12 | 54.00030 | -14.07791 | 37183 ft | 472 kts | 87° |
| 2026-05-04 03:12 | 53.99975 | -13.96642 | 37179 ft | 472 kts | 88° |
| 2026-05-04 03:13 | 53.99796 | -13.85469 | 37178 ft | 472 kts | 89° |
| 2026-05-04 03:13 | 53.99573 | -13.74306 | 37189 ft | 472 kts | 89° |
| 2026-05-04 03:14 | 53.99352 | -13.63148 | 37177 ft | 472 kts | 89° |
| 2026-05-04 03:14 | 53.99133 | -13.52048 | 37177 ft | 472 kts | 89° |
| 2026-05-04 03:15 | 53.98906 | -13.40913 | 37178 ft | 471 kts | 89° |
| 2026-05-04 03:15 | 53.98669 | -13.29782 | 37167 ft | 470 kts | 89° |
| 2026-05-04 03:16 | 53.98422 | -13.18680 | 37173 ft | 469 kts | 89° |
| 2026-05-04 03:16 | 53.98166 | -13.07674 | 37166 ft | 468 kts | 89° |
| 2026-05-04 03:17 | 53.97900 | -12.96630 | 37169 ft | 468 kts | 89° |
| 2026-05-04 03:17 | 53.97624 | -12.85598 | 37160 ft | 467 kts | 89° |
| 2026-05-04 03:18 | 53.97337 | -12.74562 | 37164 ft | 467 kts | 89° |
| 2026-05-04 03:18 | 53.97041 | -12.63528 | 37165 ft | 468 kts | 89° |
| 2026-05-04 03:19 | 53.96734 | -12.52478 | 37155 ft | 468 kts | 89° |
| 2026-05-04 03:19 | 53.96416 | -12.41426 | 37155 ft | 468 kts | 90° |
| 2026-05-04 03:20 | 53.96091 | -12.30455 | 37155 ft | 469 kts | 90° |
| 2026-05-04 03:20 | 53.95753 | -12.19392 | 37152 ft | 469 kts | 90° |
| 2026-05-04 03:21 | 53.95404 | -12.08317 | 37154 ft | 469 kts | 90° |
| 2026-05-04 03:21 | 53.95045 | -11.97239 | 37142 ft | 469 kts | 90° |
| 2026-05-04 03:22 | 53.94677 | -11.86196 | 37145 ft | 469 kts | 90° |
| 2026-05-04 03:22 | 53.94300 | -11.75213 | 37143 ft | 468 kts | 90° |
| 2026-05-04 03:23 | 53.93912 | -11.64168 | 37142 ft | 468 kts | 90° |
| 2026-05-04 03:23 | 53.93513 | -11.53117 | 37141 ft | 468 kts | 90° |
| 2026-05-04 03:24 | 53.93104 | -11.42095 | 37134 ft | 467 kts | 90° |
| 2026-05-04 03:24 | 53.92688 | -11.31114 | 37136 ft | 465 kts | 90° |
| 2026-05-04 03:25 | 53.92262 | -11.20158 | 37128 ft | 465 kts | 90° |
| 2026-05-04 03:25 | 53.91830 | -11.09290 | 37126 ft | 464 kts | 90° |
| 2026-05-04 03:26 | 53.91385 | -10.98361 | 37127 ft | 464 kts | 91° |
| 2026-05-04 03:26 | 53.90931 | -10.87441 | 37131 ft | 464 kts | 91° |
| 2026-05-04 03:27 | 53.90466 | -10.76495 | 37124 ft | 465 kts | 91° |
| 2026-05-04 03:27 | 53.89994 | -10.65616 | 37126 ft | 465 kts | 91° |
| 2026-05-04 03:28 | 53.89509 | -10.54665 | 37133 ft | 466 kts | 91° |
| 2026-05-04 03:28 | 53.89015 | -10.43709 | 37121 ft | 466 kts | 91° |
| 2026-05-04 03:29 | 53.88299 | -10.32752 | 37113 ft | 468 kts | 94° |
| 2026-05-04 03:29 | 53.87378 | -10.21800 | 37116 ft | 468 kts | 95° |
| 2026-05-04 03:30 | 53.86469 | -10.10947 | 37114 ft | 468 kts | 95° |
| 2026-05-04 03:30 | 53.85577 | -9.99980 | 37112 ft | 468 kts | 94° |
| 2026-05-04 03:31 | 53.84692 | -9.89024 | 37115 ft | 469 kts | 95° |
| 2026-05-04 03:31 | 53.83804 | -9.78151 | 37114 ft | 469 kts | 95° |
| 2026-05-04 03:32 | 53.82897 | -9.67194 | 37101 ft | 469 kts | 95° |
| 2026-05-04 03:32 | 53.81981 | -9.56256 | 37100 ft | 469 kts | 95° |
| 2026-05-04 03:33 | 53.81056 | -9.45344 | 37103 ft | 468 kts | 95° |
| 2026-05-04 03:33 | 53.80126 | -9.34491 | 37084 ft | 469 kts | 95° |
| 2026-05-04 03:34 | 53.79181 | -9.23576 | 37094 ft | 468 kts | 95° |
| 2026-05-04 03:34 | 53.78226 | -9.12674 | 37088 ft | 468 kts | 95° |
| 2026-05-04 03:35 | 53.77261 | -9.01769 | 37087 ft | 469 kts | 95° |
| 2026-05-04 03:35 | 53.76291 | -8.90925 | 37084 ft | 469 kts | 95° |
| 2026-05-04 03:36 | 53.75306 | -8.80027 | 37075 ft | 469 kts | 95° |
| 2026-05-04 03:36 | 53.74310 | -8.69126 | 37074 ft | 469 kts | 96° |
| 2026-05-04 03:37 | 53.73305 | -8.58232 | 37070 ft | 469 kts | 96° |
| 2026-05-04 03:37 | 53.72290 | -8.47355 | 37081 ft | 469 kts | 96° |
| 2026-05-04 03:38 | 53.71265 | -8.36468 | 37078 ft | 469 kts | 96° |
| 2026-05-04 03:38 | 53.70237 | -8.25657 | 37075 ft | 469 kts | 96° |
| 2026-05-04 03:39 | 53.69189 | -8.14757 | 37070 ft | 469 kts | 96° |
| 2026-05-04 03:39 | 53.68132 | -8.03867 | 37065 ft | 469 kts | 96° |
| 2026-05-04 03:40 | 53.67075 | -7.93077 | 37064 ft | 469 kts | 96° |
| 2026-05-04 03:40 | 53.66003 | -7.82234 | 37056 ft | 469 kts | 96° |
| 2026-05-04 03:41 | 53.64920 | -7.71369 | 37057 ft | 469 kts | 97° |
| 2026-05-04 03:41 | 53.63965 | -7.60525 | 37057 ft | 468 kts | 94° |
| 2026-05-04 03:42 | 53.63241 | -7.49691 | 37051 ft | 468 kts | 93° |
| 2026-05-04 03:42 | 53.62525 | -7.38787 | 37054 ft | 468 kts | 94° |
| 2026-05-04 03:43 | 53.61781 | -7.27861 | 37045 ft | 468 kts | 94° |
| 2026-05-04 03:43 | 53.61015 | -7.16947 | 37046 ft | 470 kts | 94° |
| 2026-05-04 03:44 | 53.60238 | -7.06063 | 37039 ft | 470 kts | 94° |
| 2026-05-04 03:44 | 53.59447 | -6.95116 | 37038 ft | 471 kts | 94° |
| 2026-05-04 03:45 | 53.58782 | -6.86015 | 37040 ft | 471 kts | 94° |
| 2026-05-04 03:45 | 53.57841 | -6.73293 | 37039 ft | 471 kts | 95° |
| 2026-05-04 03:46 | 53.57158 | -6.64185 | 37031 ft | 472 kts | 95° |
| 2026-05-04 03:46 | 53.56327 | -6.53222 | 37036 ft | 472 kts | 95° |
| 2026-05-04 03:47 | 53.55487 | -6.42264 | 37030 ft | 472 kts | 95° |
| 2026-05-04 03:47 | 53.54635 | -6.31294 | 37027 ft | 472 kts | 95° |
| 2026-05-04 03:48 | 53.53780 | -6.20424 | 37028 ft | 472 kts | 95° |
| 2026-05-04 03:48 | 53.52909 | -6.09471 | 37026 ft | 472 kts | 95° |
| 2026-05-04 03:49 | 53.52028 | -5.98527 | 37034 ft | 472 kts | 96° |
| 2026-05-04 03:49 | 53.51136 | -5.87575 | 37033 ft | 473 kts | 96° |
| 2026-05-04 03:50 | 53.50234 | -5.76622 | 37035 ft | 473 kts | 96° |
| 2026-05-04 03:50 | 53.49328 | -5.65742 | 37035 ft | 473 kts | 96° |
| 2026-05-04 03:51 | 53.48408 | -5.54794 | 37035 ft | 473 kts | 96° |
| 2026-05-04 03:51 | 53.47775 | -5.43813 | 37041 ft | 471 kts | 90° |
| 2026-05-04 03:52 | 53.47533 | -5.32814 | 37039 ft | 472 kts | 90° |
| 2026-05-04 03:52 | 53.47255 | -5.21804 | 37034 ft | 472 kts | 90° |
| 2026-05-04 03:53 | 53.46932 | -5.10791 | 37031 ft | 472 kts | 91° |
| 2026-05-04 03:53 | 53.46567 | -4.99773 | 37039 ft | 473 kts | 91° |
| 2026-05-04 03:54 | 53.46202 | -4.88810 | 37033 ft | 474 kts | 91° |
| 2026-05-04 03:54 | 53.45818 | -4.77769 | 37034 ft | 474 kts | 91° |
| 2026-05-04 03:55 | 53.45418 | -4.66706 | 37026 ft | 474 kts | 91° |
| 2026-05-04 03:55 | 53.45033 | -4.55642 | 37025 ft | 475 kts | 91° |
| 2026-05-04 03:56 | 53.44679 | -4.44565 | 37023 ft | 475 kts | 91° |
| 2026-05-04 03:56 | 53.44310 | -4.33558 | 37022 ft | 476 kts | 92° |
| 2026-05-04 03:57 | 53.43879 | -4.22485 | 37018 ft | 476 kts | 92° |
| 2026-05-04 03:57 | 53.43413 | -4.11404 | 37020 ft | 476 kts | 92° |
| 2026-05-04 03:58 | 53.42714 | -3.94750 | 37019 ft | 478 kts | 93° |
| 2026-05-04 03:58 | 53.42259 | -3.83626 | 37020 ft | 478 kts | 92° |
| 2026-05-04 03:59 | 53.41800 | -3.72489 | 37019 ft | 479 kts | 93° |
| 2026-05-04 03:59 | 53.40842 | -3.61425 | 37021 ft | 481 kts | 103° |
| 2026-05-04 04:00 | 53.38561 | -3.50878 | 37019 ft | 483 kts | 115° |
| 2026-05-04 04:00 | 53.35586 | -3.40859 | 37018 ft | 483 kts | 115° |
| 2026-05-04 04:01 | 53.32652 | -3.30729 | 37024 ft | 484 kts | 115° |
| 2026-05-04 04:01 | 53.29709 | -3.20574 | 37013 ft | 485 kts | 115° |
| 2026-05-04 04:02 | 53.26761 | -3.10454 | 37013 ft | 485 kts | 115° |
| 2026-05-04 04:02 | 53.23797 | -3.00322 | 37005 ft | 485 kts | 115° |
| 2026-05-04 04:03 | 53.20825 | -2.90205 | 37005 ft | 485 kts | 115° |
| 2026-05-04 04:03 | 53.17845 | -2.80104 | 36997 ft | 486 kts | 116° |
| 2026-05-04 04:04 | 53.14849 | -2.69992 | 37001 ft | 486 kts | 116° |
| 2026-05-04 04:04 | 53.11863 | -2.59955 | 36999 ft | 487 kts | 116° |
| 2026-05-04 04:05 | 53.08847 | -2.49858 | 36998 ft | 487 kts | 116° |
| 2026-05-04 04:05 | 53.05820 | -2.39760 | 37003 ft | 488 kts | 116° |
| 2026-05-04 04:06 | 53.02384 | -2.30103 | 36991 ft | 486 kts | 134° |
| 2026-05-04 04:06 | 52.99777 | -2.26578 | 36985 ft | 481 kts | 149° |
| 2026-05-04 04:06 | 52.96898 | -2.23737 | 37001 ft | 482 kts | 150° |
| 2026-05-04 04:07 | 52.91140 | -2.17942 | 36998 ft | 485 kts | 149° |
| 2026-05-04 04:07 | 52.85412 | -2.12017 | 36369 ft | 496 kts | 148° |
| 2026-05-04 04:08 | 52.82477 | -2.08957 | 35668 ft | 497 kts | 148° |
| 2026-05-04 04:08 | 52.79557 | -2.05912 | 34832 ft | 497 kts | 147° |
| 2026-05-04 04:08 | 52.76631 | -2.02864 | 33951 ft | 496 kts | 147° |
| 2026-05-04 04:08 | 52.73758 | -1.99876 | 32900 ft | 478 kts | 148° |
| 2026-05-04 04:09 | 52.71006 | -1.97018 | 31981 ft | 458 kts | 148° |
| 2026-05-04 04:09 | 52.68364 | -1.94283 | 31110 ft | 440 kts | 149° |
| 2026-05-04 04:09 | 52.65800 | -1.91635 | 30354 ft | 426 kts | 149° |
| 2026-05-04 04:09 | 52.63319 | -1.89078 | 29768 ft | 417 kts | 149° |
| 2026-05-04 04:10 | 52.60855 | -1.86544 | 29123 ft | 419 kts | 149° |
| 2026-05-04 04:10 | 52.58360 | -1.83980 | 28574 ft | 425 kts | 149° |
| 2026-05-04 04:10 | 52.55873 | -1.81428 | 27985 ft | 430 kts | 149° |
| 2026-05-04 04:10 | 52.53316 | -1.78807 | 27377 ft | 435 kts | 149° |
| 2026-05-04 04:11 | 52.50733 | -1.76163 | 26778 ft | 439 kts | 149° |
| 2026-05-04 04:11 | 52.48129 | -1.73499 | 26175 ft | 442 kts | 149° |
| 2026-05-04 04:11 | 52.45513 | -1.70827 | 25574 ft | 443 kts | 149° |
| 2026-05-04 04:11 | 52.42933 | -1.68195 | 24963 ft | 427 kts | 149° |
| 2026-05-04 04:12 | 52.40476 | -1.65689 | 24377 ft | 406 kts | 149° |
| 2026-05-04 04:12 | 52.38060 | -1.63232 | 23866 ft | 413 kts | 149° |
| 2026-05-04 04:12 | 52.35569 | -1.60704 | 23254 ft | 427 kts | 149° |
| 2026-05-04 04:12 | 52.33059 | -1.58158 | 22588 ft | 430 kts | 149° |
| 2026-05-04 04:13 | 52.30530 | -1.55595 | 21962 ft | 426 kts | 149° |
| 2026-05-04 04:13 | 52.28022 | -1.53056 | 21381 ft | 421 kts | 149° |
| 2026-05-04 04:13 | 52.25543 | -1.50548 | 20801 ft | 416 kts | 150° |
| 2026-05-04 04:13 | 52.23093 | -1.48077 | 20234 ft | 412 kts | 150° |
| 2026-05-04 04:14 | 52.20699 | -1.45552 | 19725 ft | 406 kts | 146° |
| 2026-05-04 04:14 | 52.18529 | -1.42717 | 19344 ft | 402 kts | 142° |
| 2026-05-04 04:14 | 52.16437 | -1.39698 | 18955 ft | 402 kts | 140° |
| 2026-05-04 04:14 | 52.14354 | -1.36641 | 18569 ft | 405 kts | 140° |
| 2026-05-04 04:15 | 52.12247 | -1.33589 | 18146 ft | 404 kts | 141° |
| 2026-05-04 04:15 | 52.10138 | -1.30586 | 17682 ft | 401 kts | 141° |
| 2026-05-04 04:15 | 52.08033 | -1.27632 | 17241 ft | 398 kts | 141° |
| 2026-05-04 04:15 | 52.05936 | -1.24712 | 16849 ft | 395 kts | 141° |
| 2026-05-04 04:16 | 52.03860 | -1.21833 | 16460 ft | 392 kts | 141° |
| 2026-05-04 04:16 | 52.01784 | -1.18961 | 16063 ft | 389 kts | 141° |
| 2026-05-04 04:16 | 51.99728 | -1.16117 | 15681 ft | 387 kts | 141° |
| 2026-05-04 04:16 | 51.97681 | -1.13290 | 15296 ft | 385 kts | 141° |
| 2026-05-04 04:17 | 51.95638 | -1.10472 | 14898 ft | 384 kts | 141° |
| 2026-05-04 04:17 | 51.93606 | -1.07672 | 14385 ft | 383 kts | 141° |
| 2026-05-04 04:17 | 51.91580 | -1.04882 | 13902 ft | 380 kts | 141° |
| 2026-05-04 04:17 | 51.89576 | -1.02124 | 13373 ft | 376 kts | 141° |
| 2026-05-04 04:18 | 51.87593 | -0.99401 | 12855 ft | 372 kts | 141° |
| 2026-05-04 04:18 | 51.85695 | -0.96709 | 12364 ft | 363 kts | 136° |
| 2026-05-04 04:18 | 51.84278 | -0.93402 | 11895 ft | 354 kts | 117° |
| 2026-05-04 04:18 | 51.83267 | -0.89802 | 11480 ft | 349 kts | 116° |
| 2026-05-04 04:19 | 51.82227 | -0.86273 | 11046 ft | 347 kts | 117° |
| 2026-05-04 04:19 | 51.81196 | -0.82859 | 10581 ft | 326 kts | 117° |
| 2026-05-04 04:19 | 51.80227 | -0.79676 | 10151 ft | 305 kts | 118° |
| 2026-05-04 04:19 | 51.79316 | -0.76700 | 9752 ft | 286 kts | 118° |
| 2026-05-04 04:20 | 51.78456 | -0.73899 | 9361 ft | 270 kts | 118° |
| 2026-05-04 04:20 | 51.77630 | -0.71216 | 9033 ft | 268 kts | 118° |
| 2026-05-04 04:20 | 51.76786 | -0.68481 | 8688 ft | 276 kts | 118° |
| 2026-05-04 04:20 | 51.75946 | -0.65753 | 8324 ft | 272 kts | 118° |
| 2026-05-04 04:21 | 51.75112 | -0.63048 | 7991 ft | 271 kts | 118° |
| 2026-05-04 04:21 | 51.74260 | -0.60293 | 7647 ft | 277 kts | 118° |
| 2026-05-04 04:21 | 51.73404 | -0.57526 | 7388 ft | 275 kts | 118° |
| 2026-05-04 04:21 | 51.72508 | -0.54825 | 7071 ft | 267 kts | 128° |
| 2026-05-04 04:22 | 51.71258 | -0.52741 | 6974 ft | 254 kts | 140° |
| 2026-05-04 04:22 | 51.69963 | -0.50865 | 6832 ft | 244 kts | 140° |
| 2026-05-04 04:22 | 51.68709 | -0.49032 | 6763 ft | 247 kts | 140° |
| 2026-05-04 04:22 | 51.67429 | -0.47154 | 6689 ft | 249 kts | 140° |
| 2026-05-04 04:23 | 51.66159 | -0.45283 | 6566 ft | 245 kts | 139° |
| 2026-05-04 04:23 | 51.64917 | -0.43446 | 6515 ft | 240 kts | 139° |
| 2026-05-04 04:23 | 51.63686 | -0.41624 | 6469 ft | 240 kts | 139° |
| 2026-05-04 04:23 | 51.62455 | -0.39802 | 6410 ft | 241 kts | 139° |
| 2026-05-04 04:24 | 51.61234 | -0.37994 | 6341 ft | 242 kts | 139° |
| 2026-05-04 04:24 | 51.60006 | -0.36174 | 6273 ft | 244 kts | 139° |
| 2026-05-04 04:24 | 51.58758 | -0.34323 | 6200 ft | 245 kts | 139° |
| 2026-05-04 04:24 | 51.57507 | -0.32470 | 6122 ft | 245 kts | 139° |
| 2026-05-04 04:25 | 51.56245 | -0.30599 | 6040 ft | 245 kts | 139° |
| 2026-05-04 04:25 | 51.54998 | -0.28751 | 5963 ft | 243 kts | 139° |
| 2026-05-04 04:25 | 51.53758 | -0.26915 | 5884 ft | 242 kts | 139° |
| 2026-05-04 04:25 | 51.52529 | -0.25099 | 5811 ft | 239 kts | 141° |
| 2026-05-04 04:26 | 51.51132 | -0.23801 | 5718 ft | 230 kts | 171° |
| 2026-05-04 04:26 | 51.49566 | -0.23964 | 5679 ft | 230 kts | 204° |
| 2026-05-04 04:26 | 51.48327 | -0.25501 | 5647 ft | 232 kts | 237° |
| 2026-05-04 04:26 | 51.47818 | -0.27950 | 5634 ft | 231 kts | 268° |
| 2026-05-04 04:27 | 51.47877 | -0.30480 | 5636 ft | 227 kts | 269° |
| 2026-05-04 04:27 | 51.47859 | -0.32997 | 5650 ft | 229 kts | 268° |
| 2026-05-04 04:27 | 51.47835 | -0.35561 | 5683 ft | 230 kts | 268° |
| 2026-05-04 04:27 | 51.47820 | -0.38134 | 5711 ft | 231 kts | 268° |
| 2026-05-04 04:28 | 51.47803 | -0.40720 | 5707 ft | 233 kts | 268° |
| 2026-05-04 04:28 | 51.47786 | -0.43327 | 5714 ft | 234 kts | 268° |
| 2026-05-04 04:28 | 51.47769 | -0.45938 | 5721 ft | 234 kts | 268° |
| 2026-05-04 04:28 | 51.47749 | -0.48580 | 5414 ft | 245 kts | 268° |
| 2026-05-04 04:29 | 51.47682 | -0.51346 | 4878 ft | 247 kts | 259° |
| 2026-05-04 04:29 | 51.47237 | -0.53960 | 4539 ft | 238 kts | 257° |
| 2026-05-04 04:29 | 51.47361 | -0.56510 | 4455 ft | 232 kts | 292° |
| 2026-05-04 04:29 | 51.48382 | -0.58524 | 4472 ft | 237 kts | 325° |
| 2026-05-04 04:30 | 51.49889 | -0.59356 | 4475 ft | 237 kts | 354° |
| 2026-05-04 04:30 | 51.51503 | -0.59662 | 4442 ft | 233 kts | 338° |
| 2026-05-04 04:30 | 51.52787 | -0.61180 | 4451 ft | 232 kts | 304° |
| 2026-05-04 04:30 | 51.53313 | -0.63560 | 4458 ft | 232 kts | 271° |
| 2026-05-04 04:31 | 51.52917 | -0.66038 | 4478 ft | 232 kts | 238° |
| 2026-05-04 04:31 | 51.51726 | -0.67751 | 4479 ft | 234 kts | 205° |
| 2026-05-04 04:31 | 51.50129 | -0.68132 | 4478 ft | 236 kts | 172° |
| 2026-05-04 04:31 | 51.48644 | -0.67043 | 4442 ft | 239 kts | 139° |
| 2026-05-04 04:32 | 51.47742 | -0.64816 | 4404 ft | 242 kts | 105° |
| 2026-05-04 04:32 | 51.47612 | -0.62144 | 4421 ft | 240 kts | 88° |
| 2026-05-04 04:32 | 51.47657 | -0.60376 | 4420 ft | 240 kts | 89° |
| 2026-05-04 04:32 | 51.47672 | -0.57701 | 4426 ft | 240 kts | 90° |
| 2026-05-04 04:33 | 51.47688 | -0.55030 | 4448 ft | 239 kts | 90° |
| 2026-05-04 04:33 | 51.47706 | -0.52372 | 4494 ft | 238 kts | 90° |
| 2026-05-04 04:33 | 51.47724 | -0.49686 | 4419 ft | 242 kts | 90° |
| 2026-05-04 04:33 | 51.47742 | -0.46987 | 4430 ft | 243 kts | 90° |
| 2026-05-04 04:34 | 51.47758 | -0.44299 | 4414 ft | 244 kts | 90° |
| 2026-05-04 04:34 | 51.47827 | -0.41595 | 4329 ft | 242 kts | 78° |
| 2026-05-04 04:34 | 51.48367 | -0.39076 | 4308 ft | 236 kts | 72° |
| 2026-05-04 04:34 | 51.48490 | -0.36500 | 4252 ft | 234 kts | 105° |
| 2026-05-04 04:35 | 51.47701 | -0.34257 | 4228 ft | 233 kts | 140° |
| 2026-05-04 04:35 | 51.46276 | -0.33101 | 4166 ft | 232 kts | 173° |
| 2026-05-04 04:35 | 51.44688 | -0.33359 | 4112 ft | 232 kts | 205° |
| 2026-05-04 04:35 | 51.43463 | -0.34969 | 4077 ft | 230 kts | 239° |
| 2026-05-04 04:36 | 51.43012 | -0.37360 | 4079 ft | 229 kts | 271° |
| 2026-05-04 04:36 | 51.43470 | -0.39769 | 4073 ft | 230 kts | 305° |
| 2026-05-04 04:36 | 51.44720 | -0.41391 | 4072 ft | 232 kts | 339° |
| 2026-05-04 04:36 | 51.46282 | -0.41780 | 4086 ft | 230 kts | 356° |
| 2026-05-04 04:37 | 51.49302 | -0.46592 | 4100 ft | 228 kts | 269° |
| 2026-05-04 04:37 | 51.49126 | -0.49106 | 4081 ft | 227 kts | 252° |
| 2026-05-04 04:38 | 51.48271 | -0.51314 | 3677 ft | 243 kts | 221° |
| 2026-05-04 04:38 | 51.46762 | -0.52475 | 3317 ft | 246 kts | 189° |
| 2026-05-04 04:38 | 51.45109 | -0.52774 | 3107 ft | 232 kts | 196° |
| 2026-05-04 04:38 | 51.43812 | -0.54060 | 3042 ft | 213 kts | 233° |
| 2026-05-04 04:39 | 51.43311 | -0.56146 | 3006 ft | 195 kts | 273° |
| 2026-05-04 04:39 | 51.43743 | -0.58124 | 3013 ft | 187 kts | 313° |
| 2026-05-04 04:39 | 51.44872 | -0.59125 | 3072 ft | 203 kts | 352° |
| 2026-05-04 04:39 | 51.46367 | -0.58851 | 3092 ft | 227 kts | 23° |
| 2026-05-04 04:40 | 51.47586 | -0.57245 | 3046 ft | 233 kts | 56° |
| 2026-05-04 04:40 | 51.48058 | -0.54821 | 3017 ft | 233 kts | 90° |
| 2026-05-04 04:40 | 51.47742 | -0.52315 | 3039 ft | 227 kts | 103° |
| 2026-05-04 04:40 | 51.47746 | -0.49794 | 3045 ft | 229 kts | 80° |
| 2026-05-04 04:41 | 51.47782 | -0.47222 | 3021 ft | 234 kts | 100° |
| 2026-05-04 04:41 | 51.47596 | -0.44615 | 2985 ft | 237 kts | 90° |
| 2026-05-04 04:41 | 51.47762 | -0.42017 | 2921 ft | 233 kts | 71° |
| 2026-05-04 04:41 | 51.45122 | -0.37807 | 2825 ft | 233 kts | 50° |
| 2026-05-04 04:42 | 51.46423 | -0.36406 | 2705 ft | 222 kts | 14° |
| 2026-05-04 04:42 | 51.47366 | -0.30949 | 2685 ft | 211 kts | 354° |
| 2026-05-04 04:42 | 51.48661 | -0.31754 | 2579 ft | 195 kts | 316° |
| 2026-05-04 04:42 | 51.49263 | -0.33528 | 2547 ft | 177 kts | 274° |
| 2026-05-04 04:43 | 51.48956 | -0.35537 | 2274 ft | 223 kts | 239° |
| 2026-05-04 04:43 | 51.47998 | -0.37625 | 1786 ft | 231 kts | 240° |
| 2026-05-04 04:43 | 51.47601 | -0.39840 | 1172 ft | 1 kts | 270° |
| 2026-05-04 04:43 | 51.47909 | -0.37341 | 807 ft | 222 kts | 278° |
| 2026-05-04 04:44 | 51.47881 | -0.39693 | 465 ft | 200 kts | 262° |
| 2026-05-04 04:44 | 51.47784 | -0.41787 | 255 ft | 176 kts | 271° |
| 2026-05-04 04:44 | 51.47754 | -0.41239 | 233 ft | 494 kts | 271° |
| 2026-05-04 04:44 | 51.47767 | -0.42555 | 210 ft | 163 kts | 271° |
| 2026-05-04 04:45 | 51.47766 | -0.44311 | 94 ft | 145 kts | 270° |
| 2026-05-04 04:45 | 51.47761 | -0.45405 | 93 ft | 50 kts | 269° |
| 2026-05-04 04:45 | 51.47760 | -0.45552 | 93 ft | 2 kts | 271° |